Domov               UVHVVR             MKGP            O straneh              
ZDRAVSTVENO VARSTVO RASTLIN
  MREŽA AGROMET. POSTAJ
 ► PROGNOSTIČNA OBVESTILA
AGROMETEOROLOŠKI PODATKI -
ARSO
OBVLADOVANJE TVEGANJ ZARADI
NEUGODNIH VREMENSKIH RAZMER
  ► NARAVNE NESREČE
  ► SUŠA/MOČA
  ► NAMAKANJE
  ► ŽLED (gozdarstvo)
KARTOGRAFSKI PRIKAZI
SPLETNE POVEZAVE
PROJEKTI IN PUBLIKACIJE

AGROMETEOROLOŠKA MREŽA: VREMENSKE POSTAJE IN FENOLOŠKA OPAZOVANJA

Pregled podatkov za lokacijo Potoče, meteorološka postaja 861648

Pregled senzorjev na lokaciji

ID Ime Zadnja
vrednost
Datum
zadnje
spremembe
Tip
senzorja
4070 Temperatura 2 m ( °C) 18,29 °C 24.8.2017 08:30 50YA
4071 Relativna vlaga 2 m (% RH) 85,42 % RH 24.8.2017 08:30 50YA
4072 Omočenost lista (U) 8 U 24.8.2017 08:30 A730WET
4073 Padavine 0.2 mm (mm) 0 mm 24.8.2017 08:30 Rain-O-Matic

Pregled podatkov zadnjih 24 ur

Zap.
št.
Datum in čas Potoče
Omočenost
lista
Padavine
0.2
mm
Relativna
vlaga
2
m
Temperatura
2
m
0 24.8.2017 07:30 8 0 85,42 18,29
1 24.8.2017 07:00 10 0 98,05 14,22
2 24.8.2017 06:30 10 0 97,95 11,79
3 24.8.2017 06:00 9 0 97,15 10,36
4 24.8.2017 05:30 8 0 96,85 10,19
5 24.8.2017 05:00 8 0 96,72 10,35
6 24.8.2017 04:30 7 0 96,56 10,49
7 24.8.2017 04:00 6 0 96,49 10,73
8 24.8.2017 03:30 5 0 96,31 10,9
9 24.8.2017 03:00 5 0 96,08 11,16
10 24.8.2017 02:30 4 0 95,69 11,31
11 24.8.2017 02:00 3 0 95,45 11,53
12 24.8.2017 01:30 3 0 95,42 11,88
13 24.8.2017 01:00 3 0 95,4 12,21
14 24.8.2017 00:30 2 0 94,96 12,48
15 24.8.2017 00:00 2 0 94,53 12,71
16 23.8.2017 23:30 2 0 93,88 12,97
17 23.8.2017 23:00 1 0 92,86 13,28
18 23.8.2017 22:30 1 0 92,6 13,82
19 23.8.2017 22:00 1 0 92,31 14,42
20 23.8.2017 21:30 1 0 91,29 14,96
21 23.8.2017 21:00 0 0 89,86 15,63
22 23.8.2017 20:30 0 0 88,47 16,49
23 23.8.2017 20:00 0 0 84,64 17,71
24 23.8.2017 19:30 0 0 78,26 19,73
25 23.8.2017 19:00 0 0 67,13 22,69
26 23.8.2017 18:30 0 0 57,5 25,85
27 23.8.2017 18:00 0 0 50,82 26,85
28 23.8.2017 17:30 0 0 48,95 27,05
29 23.8.2017 17:00 0 0 48,78 27,04
30 23.8.2017 16:30 0 0 47,41 27,44
31 23.8.2017 16:00 0 0 48,77 26,75
32 23.8.2017 15:30 0 0 45,44 27,99
33 23.8.2017 15:00 0 0 45,98 27,85
34 23.8.2017 14:30 0 0 45,49 27,95
35 23.8.2017 14:00 0 0 44,03 28,29
36 23.8.2017 13:30 0 0 41,61 29,2
37 23.8.2017 13:00 0 0 41,75 29,11
38 23.8.2017 12:30 0 0 42,89 28,6
39 23.8.2017 12:00 0 0 40,7 28,91
40 23.8.2017 11:30 0 0 40,75 28,14
41 23.8.2017 11:00 0 0 41,96 27,68
42 23.8.2017 10:30 0 0 47,2 26,73
43 23.8.2017 10:00 0 0 54,02 24,53
44 23.8.2017 09:30 0 0 58,15 23,24
45 23.8.2017 09:00 0 0 60,74 22,31
© 2011 Ministrstvo za kmetijstvo, gozdarstvo in prehrano. Vse pravice pridržane.